Time;durP1;ratioP1;P1;durP2;ratioP2;P2;SDS_P1;SDS_P2;PMS_P1;PMS_P2;Temp;Humidity;BMP_temperature;BMP_pressure;BME280_temperature;BME280_humidity;BME280_pressure;Samples;Min_cycle;Max_cycle;Signal;HPM_P1;HPM_P2
2021/01/23 00:00:47;;;;;;;26.43;16.87;;;;;;;2.81;100.00;98410.72;5003531;28;20244;-38
2021/01/23 00:03:34;;;;;;;25.17;17.37;;;;;;;2.99;100.00;98407.19;5003082;28;20716;-32
2021/01/23 00:06:23;;;;;;;27.77;17.70;;;;;;;3.16;100.00;98407.88;5003123;28;20202;-33
2021/01/23 00:09:10;;;;;;;28.17;18.07;;;;;;;3.18;100.00;98415.53;5004711;28;20552;-36
2021/01/23 00:11:56;;;;;;;28.47;16.93;;;;;;;2.97;100.00;98406.34;5004107;28;20954;-37
2021/01/23 00:14:42;;;;;;;25.60;17.17;;;;;;;2.61;100.00;98402.38;5003372;28;20353;-34
2021/01/23 00:17:29;;;;;;;24.90;16.63;;;;;;;2.85;100.00;98402.19;5003406;28;20491;-35
2021/01/23 00:20:15;;;;;;;24.30;16.67;;;;;;;2.95;100.00;98393.59;5003339;28;20234;-34
2021/01/23 00:23:03;;;;;;;25.27;16.80;;;;;;;2.92;100.00;98393.63;5003581;28;20468;-32
2021/01/23 00:25:52;;;;;;;25.73;18.10;;;;;;;2.94;100.00;98397.00;5003922;28;20206;-35
2021/01/23 00:28:39;;;;;;;25.80;17.53;;;;;;;2.90;100.00;98394.50;5003407;28;20205;-34
2021/01/23 00:31:25;;;;;;;26.47;17.33;;;;;;;2.80;100.00;98396.25;5003548;28;20570;-34
2021/01/23 00:34:12;;;;;;;27.93;16.77;;;;;;;2.69;100.00;98403.16;5002430;28;20663;-35
2021/01/23 00:36:58;;;;;;;27.13;17.73;;;;;;;2.80;100.00;98393.69;5003116;28;20198;-33
2021/01/23 00:39:46;;;;;;;31.33;16.87;;;;;;;2.83;100.00;98393.69;5003314;28;20241;-35
2021/01/23 00:42:32;;;;;;;24.97;16.83;;;;;;;2.79;100.00;98394.59;5003539;28;20620;-36
2021/01/23 00:45:18;;;;;;;29.30;18.70;;;;;;;2.98;100.00;98397.84;5000546;28;20300;-34
2021/01/23 00:48:08;;;;;;;32.77;18.73;;;;;;;2.92;100.00;98401.28;4999808;28;20600;-34
2021/01/23 00:50:55;;;;;;;28.57;17.83;;;;;;;2.75;100.00;98398.03;4999822;28;20217;-35
2021/01/23 00:53:44;;;;;;;24.27;17.53;;;;;;;2.98;100.00;98398.69;4999972;28;20218;-36
2021/01/23 00:56:32;;;;;;;29.80;17.83;;;;;;;3.10;100.00;98400.25;4999585;28;20226;-33
2021/01/23 00:59:18;;;;;;;27.20;17.37;;;;;;;3.16;100.00;98399.38;4999908;28;20648;-34
2021/01/23 01:02:05;;;;;;;28.13;18.00;;;;;;;3.31;100.00;98389.00;4999787;28;20198;-36
2021/01/23 01:04:51;;;;;;;23.13;17.20;;;;;;;3.14;100.00;98401.09;5000149;28;20279;-35
2021/01/23 01:07:37;;;;;;;23.87;17.07;;;;;;;3.18;100.00;98402.75;4998992;28;20230;-35
2021/01/23 01:10:24;;;;;;;25.43;16.87;;;;;;;3.10;100.00;98403.66;5000119;28;20536;-33
2021/01/23 01:13:11;;;;;;;25.47;17.50;;;;;;;3.30;100.00;98406.03;4999807;28;20545;-38
2021/01/23 01:15:58;;;;;;;23.83;16.73;;;;;;;2.99;100.00;98409.75;4999669;28;20210;-39
2021/01/23 01:18:44;;;;;;;24.30;16.83;;;;;;;3.37;100.00;98410.22;4999544;28;20600;-35
2021/01/23 01:21:30;;;;;;;26.43;17.30;;;;;;;3.33;100.00;98411.13;4999830;28;20198;-34
2021/01/23 01:24:17;;;;;;;25.13;17.63;;;;;;;3.25;100.00;98412.03;4999614;28;20533;-34
2021/01/23 01:27:04;;;;;;;27.53;17.63;;;;;;;3.32;100.00;98416.22;4999511;28;20509;-34
2021/01/23 01:29:51;;;;;;;25.27;17.60;;;;;;;3.31;100.00;98420.50;4999707;28;20482;-36
2021/01/23 01:32:37;;;;;;;30.60;18.67;;;;;;;3.35;100.00;98419.63;4999726;28;20211;-33
2021/01/23 01:35:24;;;;;;;26.63;17.17;;;;;;;3.07;100.00;98426.69;4999764;28;20293;-34
2021/01/23 01:38:10;;;;;;;31.23;17.53;;;;;;;2.92;100.00;98429.38;4999349;28;20203;-33
2021/01/23 01:40:57;;;;;;;28.27;17.90;;;;;;;2.98;100.00;98429.31;4999255;28;20223;-34
2021/01/23 01:43:45;;;;;;;24.63;16.90;;;;;;;3.20;100.00;98431.69;4999446;28;20242;-36
2021/01/23 01:46:33;;;;;;;24.90;17.77;;;;;;;3.16;100.00;98435.97;4999175;28;20206;-35
2021/01/23 01:49:20;;;;;;;28.03;18.03;;;;;;;3.07;100.00;98431.78;4999341;28;20195;-34
2021/01/23 01:52:06;;;;;;;28.80;18.00;;;;;;;3.17;100.00;98436.81;4999184;28;20217;-34
2021/01/23 01:54:53;;;;;;;27.77;17.80;;;;;;;3.10;100.00;98439.44;4999406;28;20277;-36
2021/01/23 01:57:40;;;;;;;28.50;17.10;;;;;;;3.20;100.00;98435.06;4999291;28;20202;-35
2021/01/23 02:00:27;;;;;;;27.70;17.83;;;;;;;3.06;100.00;98431.78;4960172;29;20506;-36
2021/01/23 02:03:35;;;;;;;26.50;17.73;;;;;;;2.95;100.00;98434.44;4960354;29;20199;-37
2021/01/23 02:06:54;;;;;;;27.67;17.30;;;;;;;2.88;100.00;98440.47;4960274;29;20199;-34
2021/01/23 02:10:04;;;;;;;24.73;16.03;;;;;;;2.75;100.00;98436.31;4960319;29;20216;-36
2021/01/23 02:13:10;;;;;;;20.80;15.13;;;;;;;2.86;100.00;98452.38;4959183;28;20215;-35
2021/01/23 02:16:01;;;;;;;23.83;15.93;;;;;;;2.78;100.00;98445.66;4960075;29;20303;-33
2021/01/23 02:19:00;;;;;;;24.30;16.07;;;;;;;2.89;100.00;98448.97;4959963;29;20606;-32
2021/01/23 02:22:04;;;;;;;24.30;16.80;;;;;;;2.81;100.00;98446.47;4959665;29;20200;-34
2021/01/23 02:24:52;;;;;;;28.17;16.47;;;;;;;2.79;100.00;98453.31;4960250;29;20258;-32
2021/01/23 02:27:49;;;;;;;26.97;16.03;;;;;;;2.74;100.00;98445.66;4959882;29;20624;-34
2021/01/23 02:30:46;;;;;;;27.70;17.47;;;;;;;2.74;100.00;98447.38;4959148;29;20200;-32
2021/01/23 02:33:35;;;;;;;24.70;15.70;;;;;;;2.80;100.00;98454.16;4959048;29;20235;-34
2021/01/23 02:36:22;;;;;;;25.70;17.40;;;;;;;2.75;100.00;98457.59;4959860;29;20203;-32
2021/01/23 02:39:12;;;;;;;23.80;16.07;;;;;;;2.73;100.00;98461.00;4959627;29;20208;-36
2021/01/23 02:41:59;;;;;;;21.13;15.13;;;;;;;2.72;100.00;98462.69;4959689;29;20252;-33
2021/01/23 02:44:45;;;;;;;24.73;16.47;;;;;;;2.73;100.00;98464.41;4959590;29;20610;-34
2021/01/23 02:47:32;;;;;;;28.93;15.60;;;;;;;2.69;100.00;98467.81;4959105;29;20994;-33
2021/01/23 02:50:20;;;;;;;24.93;16.17;;;;;;;2.89;100.00;98465.13;4959212;29;20200;-34
2021/01/23 02:53:11;;;;;;;23.20;15.40;;;;;;;2.78;100.00;98473.75;4959353;29;20278;-33
2021/01/23 02:56:08;;;;;;;24.83;16.67;;;;;;;2.86;100.00;98467.69;4958864;29;20280;-36
2021/01/23 02:59:01;;;;;;;22.30;16.27;;;;;;;2.86;100.00;98470.25;4976013;28;20326;-35
2021/01/23 03:01:49;;;;;;;20.63;14.83;;;;;;;2.95;100.00;98467.66;4997877;28;20202;-37
2021/01/23 03:04:38;;;;;;;24.57;15.30;;;;;;;2.71;100.00;98461.00;4998351;28;20207;-37
2021/01/23 03:07:26;;;;;;;22.87;15.13;;;;;;;2.81;100.00;98459.22;4997561;28;20218;-35
2021/01/23 03:10:13;;;;;;;18.93;14.23;;;;;;;2.78;100.00;98455.88;4997700;28;20199;-36
2021/01/23 03:13:00;;;;;;;23.90;16.00;;;;;;;2.93;100.00;98465.97;4997955;28;20265;-34
2021/01/23 03:15:46;;;;;;;23.77;14.97;;;;;;;2.69;100.00;98464.41;4997502;28;20589;-31
2021/01/23 03:18:32;;;;;;;19.97;14.23;;;;;;;2.68;100.00;98460.19;4997917;28;20295;-36
2021/01/23 03:21:19;;;;;;;21.67;13.77;;;;;;;2.78;100.00;98449.06;4997353;28;20707;-32
2021/01/23 03:24:08;;;;;;;21.37;13.47;;;;;;;2.92;100.00;98447.25;4997726;28;20624;-33
2021/01/23 03:26:54;;;;;;;20.13;14.33;;;;;;;2.82;100.00;98449.84;4997491;28;20629;-32
2021/01/23 03:29:40;;;;;;;22.10;13.97;;;;;;;2.81;100.00;98448.16;4997600;28;20203;-36
2021/01/23 03:32:26;;;;;;;21.70;12.80;;;;;;;2.75;100.00;98444.81;4997548;28;20257;-34
2021/01/23 03:35:13;;;;;;;25.43;13.10;;;;;;;2.88;100.00;98443.00;4997563;28;20450;-33
2021/01/23 03:38:00;;;;;;;23.63;14.30;;;;;;;2.71;100.00;98435.47;4997502;28;20226;-36
2021/01/23 03:40:48;;;;;;;18.63;12.57;;;;;;;2.88;100.00;98440.47;4997530;28;20365;-32
2021/01/23 03:43:34;;;;;;;17.37;12.00;;;;;;;2.85;100.00;98442.19;4997507;28;20206;-35
2021/01/23 03:46:20;;;;;;;21.70;12.77;;;;;;;2.88;100.00;98443.00;4997466;28;20202;-35
2021/01/23 03:49:07;;;;;;;23.73;12.70;;;;;;;2.82;100.00;98442.19;4997753;28;20202;-33
2021/01/23 03:51:53;;;;;;;22.43;14.23;;;;;;;2.78;100.00;98449.06;4997575;28;20206;-35
2021/01/23 03:54:40;;;;;;;34.60;19.23;;;;;;;2.69;100.00;98446.56;4997390;28;20206;-36
2021/01/23 03:57:28;;;;;;;32.23;16.87;;;;;;;2.61;100.00;98443.19;4997286;28;20482;-33
2021/01/23 04:00:15;;;;;;;23.30;15.00;;;;;;;2.65;100.00;98434.66;4997289;28;20591;-34
2021/01/23 04:03:02;;;;;;;49.53;21.33;;;;;;;2.56;100.00;98429.66;4997772;28;20214;-34
2021/01/23 04:05:49;;;;;;;27.30;15.93;;;;;;;2.54;100.00;98432.19;4997249;28;20627;-34
2021/01/23 04:08:36;;;;;;;17.80;13.17;;;;;;;2.57;100.00;98437.28;4997326;28;20218;-38
2021/01/23 04:11:22;;;;;;;22.87;14.57;;;;;;;2.55;100.00;98418.59;4997202;28;20203;-35
2021/01/23 04:14:09;;;;;;;19.97;14.10;;;;;;;2.52;100.00;98430.50;4997316;28;20341;-37
2021/01/23 04:16:56;;;;;;;20.47;14.60;;;;;;;2.66;100.00;98429.56;4997465;28;20442;-33
2021/01/23 04:19:42;;;;;;;23.80;13.70;;;;;;;2.53;100.00;98424.56;4997746;28;20226;-34
2021/01/23 04:22:29;;;;;;;22.03;13.50;;;;;;;2.62;100.00;98420.22;5001167;28;20206;-34
2021/01/23 04:25:15;;;;;;;19.60;12.60;;;;;;;2.58;100.00;98418.56;5000991;28;20202;-34
2021/01/23 04:28:03;;;;;;;20.13;13.97;;;;;;;2.68;100.00;98429.53;5000550;28;20206;-35
2021/01/23 04:30:53;;;;;;;22.67;14.13;;;;;;;2.75;100.00;98418.44;5000580;28;20203;-35
2021/01/23 04:33:40;;;;;;;21.57;14.07;;;;;;;2.74;100.00;98414.19;5000773;28;20238;-35
2021/01/23 04:36:26;;;;;;;23.47;15.53;;;;;;;2.81;100.00;98413.25;4999730;28;20274;-35
2021/01/23 04:39:13;;;;;;;30.20;14.27;;;;;;;2.83;100.00;98414.09;5000384;28;20203;-34
2021/01/23 04:42:00;;;;;;;19.97;13.27;;;;;;;2.82;100.00;98412.41;5000133;28;20604;-34
2021/01/23 04:44:46;;;;;;;24.47;13.27;;;;;;;2.82;100.00;98406.47;5000396;28;20221;-35
2021/01/23 04:47:34;;;;;;;22.73;12.83;;;;;;;2.72;100.00;98406.53;5000226;28;20234;-34
2021/01/23 04:50:21;;;;;;;18.87;13.33;;;;;;;2.75;100.00;98405.69;5000158;28;20277;-34
2021/01/23 04:53:07;;;;;;;28.60;15.10;;;;;;;2.79;100.00;98401.41;4999851;28;20640;-35
2021/01/23 04:55:54;;;;;;;18.70;13.70;;;;;;;2.73;100.00;98394.63;4999814;28;20209;-36
2021/01/23 04:58:41;;;;;;;22.93;13.00;;;;;;;2.68;100.00;98399.75;4999574;28;20927;-36
2021/01/23 05:01:27;;;;;;;25.67;13.60;;;;;;;2.67;100.00;98387.00;5000143;28;20249;-33
2021/01/23 05:04:15;;;;;;;24.57;15.47;;;;;;;2.59;100.00;98376.03;5000073;28;20322;-32
2021/01/23 05:07:01;;;;;;;22.73;13.03;;;;;;;2.60;100.00;98378.53;4999680;28;20202;-34
2021/01/23 05:09:48;;;;;;;23.23;14.37;;;;;;;2.61;100.00;98371.75;4999825;28;20353;-33
2021/01/23 05:12:39;;;;;;;35.70;16.57;;;;;;;2.54;100.00;98376.06;5000036;28;20600;-32
2021/01/23 05:15:27;;;;;;;29.10;15.90;;;;;;;2.47;100.00;98379.50;4999954;28;20711;-33
2021/01/23 05:18:14;;;;;;;30.40;16.47;;;;;;;2.49;100.00;98372.69;5000063;28;20195;-34
2021/01/23 05:21:09;;;;;;;32.83;16.83;;;;;;;2.54;100.00;98365.84;4999906;28;20514;-37
2021/01/23 05:24:05;;;;;;;22.77;14.27;;;;;;;2.48;100.00;98357.38;4999803;28;20203;-34
2021/01/23 05:26:56;;;;;;;26.93;14.77;;;;;;;2.48;100.00;98365.88;4999597;28;20202;-34
2021/01/23 05:29:57;;;;;;;24.53;13.17;;;;;;;2.61;100.00;98358.97;4999887;28;20726;-32
2021/01/23 05:32:44;;;;;;;21.57;13.03;;;;;;;2.47;100.00;98353.16;4999082;28;20483;-34
2021/01/23 05:35:34;;;;;;;22.67;13.67;;;;;;;2.47;100.00;98355.69;4999095;28;20570;-31
2021/01/23 05:38:23;;;;;;;20.73;13.60;;;;;;;2.60;100.00;98344.56;4999665;28;20194;-36
2021/01/23 05:41:12;;;;;;;19.67;12.47;;;;;;;2.51;100.00;98340.34;5000225;28;20229;-32
2021/01/23 05:43:59;;;;;;;19.93;12.83;;;;;;;2.50;100.00;98336.13;4999481;28;20457;-35
2021/01/23 05:46:46;;;;;;;25.67;13.30;;;;;;;2.56;100.00;98333.53;4999519;28;20197;-34
2021/01/23 05:49:33;;;;;;;18.63;11.70;;;;;;;2.53;100.00;98333.53;4999536;28;20194;-31
2021/01/23 05:52:19;;;;;;;20.13;12.33;;;;;;;2.58;100.00;98343.72;4999360;28;20211;-32
2021/01/23 05:55:09;;;;;;;18.13;11.80;;;;;;;2.49;100.00;98342.06;4998952;28;20361;-34
2021/01/23 05:57:57;;;;;;;21.43;12.83;;;;;;;2.66;100.00;98339.38;4998978;28;20206;-32
2021/01/23 06:08:06;;;;;;;20.73;11.80;;;;;;;2.69;100.00;98337.66;5589618;23;20353;-30
2021/01/23 06:10:53;;;;;;;17.40;11.50;;;;;;;2.76;100.00;98341.00;4982467;28;20203;-29
2021/01/23 06:13:43;;;;;;;21.37;12.37;;;;;;;2.78;100.00;98344.41;4982366;28;20227;-30
2021/01/23 06:16:42;;;;;;;19.30;12.17;;;;;;;2.70;100.00;98348.72;4981081;28;20290;-27
2021/01/23 06:19:42;;;;;;;18.67;11.63;;;;;;;2.66;100.00;98349.59;4981053;28;20210;-27
2021/01/23 06:22:54;;;;;;;22.57;12.63;;;;;;;2.70;100.00;98339.34;4986387;28;20195;-27
2021/01/23 06:26:00;;;;;;;21.43;12.60;;;;;;;2.72;100.00;98345.28;4981398;28;20722;-30
2021/01/23 06:28:54;;;;;;;18.83;11.80;;;;;;;2.78;100.00;98354.59;4982724;28;20617;-29
2021/01/23 06:31:40;;;;;;;20.53;13.33;;;;;;;2.62;100.00;98364.06;4981447;28;20490;-28
2021/01/23 06:34:27;;;;;;;19.17;12.00;;;;;;;2.57;100.00;98347.97;4981726;28;20215;-28
2021/01/23 06:37:22;;;;;;;19.77;11.93;;;;;;;2.73;100.00;98349.53;4979794;28;20203;-28
2021/01/23 06:40:14;;;;;;;23.40;11.90;;;;;;;2.76;100.00;98351.22;4980027;28;20230;-27
2021/01/23 06:43:05;;;;;;;21.70;11.80;;;;;;;2.70;100.00;98351.25;4980273;28;20670;-29
2021/01/23 06:45:53;;;;;;;21.03;11.87;;;;;;;2.66;100.00;98353.00;4981262;28;20293;-29
2021/01/23 06:49:00;;;;;;;18.83;11.43;;;;;;;2.61;100.00;98357.28;4980502;28;20298;-29
2021/01/23 06:51:46;;;;;;;20.63;14.20;;;;;;;2.74;100.00;98364.00;4980378;28;20254;-29
2021/01/23 06:54:33;;;;;;;19.37;12.50;;;;;;;2.75;100.00;98359.72;4980694;28;20334;-29
2021/01/23 06:57:19;;;;;;;20.73;12.27;;;;;;;2.74;100.00;98358.03;4980583;28;20280;-29
2021/01/23 07:00:08;;;;;;;21.60;12.80;;;;;;;2.85;100.00;98360.47;4979444;28;20210;-29
2021/01/23 07:02:55;;;;;;;19.10;12.30;;;;;;;2.93;100.00;98358.72;4980211;28;20202;-29
2021/01/23 07:05:55;;;;;;;18.43;11.67;;;;;;;2.96;100.00;98359.53;4981955;28;20202;-29
2021/01/23 07:08:48;;;;;;;14.30;10.83;;;;;;;2.95;100.00;98369.78;4980526;28;20245;-29
2021/01/23 07:11:34;;;;;;;20.43;10.93;;;;;;;3.01;100.00;98367.13;4980063;28;20191;-29
2021/01/23 07:14:20;;;;;;;19.50;11.83;;;;;;;3.07;100.00;98361.97;4979670;28;20191;-29
2021/01/23 07:17:14;;;;;;;18.10;12.17;;;;;;;3.07;100.00;98362.81;4979874;28;20259;-29
2021/01/23 07:20:04;;;;;;;20.03;11.73;;;;;;;3.10;100.00;98355.13;4980631;28;20238;-28
2021/01/23 07:22:50;;;;;;;20.33;11.37;;;;;;;2.99;100.00;98354.41;4980374;28;20262;-29
2021/01/23 07:25:37;;;;;;;18.20;10.73;;;;;;;2.97;100.00;98351.03;4981310;28;20251;-28
2021/01/23 07:28:24;;;;;;;18.03;10.90;;;;;;;2.93;100.00;98359.56;4981209;28;20282;-29
2021/01/23 07:31:20;;;;;;;16.10;10.80;;;;;;;2.99;100.00;98362.06;4981028;28;20203;-29
2021/01/23 07:34:12;;;;;;;15.70;9.93;;;;;;;2.90;100.00;98358.75;4981720;28;20203;-29
2021/01/23 07:37:00;;;;;;;15.63;10.97;;;;;;;2.94;100.00;98371.47;4985736;28;20312;-29
2021/01/23 07:39:49;;;;;;;18.37;10.13;;;;;;;3.01;100.00;98373.09;4987613;28;20290;-30
2021/01/23 07:42:36;;;;;;;18.43;10.33;;;;;;;2.95;100.00;98377.44;4983596;28;20294;-29
2021/01/23 07:45:24;;;;;;;13.57;9.10;;;;;;;2.98;100.00;98372.28;4985161;28;20215;-29
2021/01/23 07:48:11;;;;;;;16.00;10.03;;;;;;;2.98;100.00;98368.03;4984901;28;20203;-29
2021/01/23 07:50:59;;;;;;;17.27;10.20;;;;;;;3.14;100.00;98366.19;4980327;28;20194;-29
2021/01/23 07:54:03;;;;;;;15.50;10.37;;;;;;;3.36;100.00;98366.81;4980949;28;20262;-29
2021/01/23 07:56:54;;;;;;;20.17;10.70;;;;;;;3.37;100.00;98377.00;4984857;28;20292;-29
2021/01/23 07:59:41;;;;;;;15.37;10.43;;;;;;;3.21;100.00;98378.00;4983374;28;20279;-29
2021/01/23 08:02:27;;;;;;;17.73;11.17;;;;;;;3.26;100.00;98371.16;4984414;28;20198;-29
2021/01/23 08:05:17;;;;;;;20.70;11.27;;;;;;;2.93;100.00;98371.47;4982985;28;20726;-30
2021/01/23 08:08:05;;;;;;;15.77;10.00;;;;;;;2.92;100.00;98375.75;4983052;28;20243;-29
2021/01/23 08:10:51;;;;;;;16.60;11.03;;;;;;;3.00;100.00;98370.53;4983403;28;20195;-30
2021/01/23 08:13:37;;;;;;;18.03;11.27;;;;;;;3.07;100.00;98378.16;4983408;28;20202;-30
2021/01/23 08:16:24;;;;;;;15.80;10.63;;;;;;;2.97;100.00;98380.81;4982596;28;20673;-29
2021/01/23 08:19:10;;;;;;;22.07;10.83;;;;;;;2.90;100.00;98374.91;4983289;28;20368;-31
2021/01/23 08:22:14;;;;;;;15.97;11.23;;;;;;;3.06;100.00;98371.34;4983189;28;20223;-30
2021/01/23 08:25:22;;;;;;;18.63;11.07;;;;;;;3.16;100.00;98372.13;4983012;28;20598;-30
2021/01/23 08:28:08;;;;;;;15.87;10.87;;;;;;;3.28;100.00;98371.13;4982840;28;20304;-30
2021/01/23 08:30:54;;;;;;;16.90;11.57;;;;;;;3.07;100.00;98374.75;4982315;28;20196;-30
2021/01/23 08:33:46;;;;;;;15.70;10.67;;;;;;;3.18;100.00;98364.44;4982585;28;20206;-30
2021/01/23 08:36:35;;;;;;;20.67;11.67;;;;;;;3.54;100.00;98371.72;4982976;28;20202;-31
2021/01/23 08:39:22;;;;;;;19.90;11.23;;;;;;;3.35;100.00;98372.78;4982243;28;20226;-31
2021/01/23 08:42:10;;;;;;;20.50;12.37;;;;;;;3.63;100.00;98373.28;4981592;28;20366;-31
2021/01/23 08:44:56;;;;;;;16.07;11.10;;;;;;;3.42;100.00;98364.16;4982068;28;20200;-31
2021/01/23 08:47:42;;;;;;;11.97;9.27;;;;;;;3.34;100.00;98364.25;4981995;28;20489;-31
2021/01/23 08:50:29;;;;;;;17.33;10.33;;;;;;;3.40;100.00;98371.00;4981838;28;20199;-31
2021/01/23 08:53:15;;;;;;;14.57;10.37;;;;;;;3.72;100.00;98373.19;4981909;28;20199;-32
2021/01/23 08:56:02;;;;;;;13.80;9.90;;;;;;;3.71;100.00;98371.50;4982497;28;20199;-31
2021/01/23 08:58:49;;;;;;;13.67;9.50;;;;;;;3.54;100.00;98376.81;4984399;28;20203;-31
2021/01/23 09:01:35;;;;;;;14.30;10.27;;;;;;;3.60;100.00;98373.31;4982116;28;20274;-31
2021/01/23 09:04:24;;;;;;;17.10;10.57;;;;;;;3.55;100.00;98370.00;4980799;28;20284;-30
2021/01/23 09:07:10;;;;;;;19.53;10.40;;;;;;;3.98;100.00;98365.19;4980111;28;20653;-30
2021/01/23 09:09:59;;;;;;;14.77;9.43;;;;;;;3.97;100.00;98363.50;4980448;28;20597;-30
2021/01/23 09:12:47;;;;;;;13.77;9.37;;;;;;;4.05;100.00;98364.22;4980592;28;20607;-31
2021/01/23 09:15:35;;;;;;;14.20;9.70;;;;;;;3.77;100.00;98362.06;4980722;28;20203;-30
2021/01/23 09:18:22;;;;;;;15.57;9.20;;;;;;;3.90;100.00;98367.84;4981054;28;20633;-31
2021/01/23 09:21:09;;;;;;;15.23;10.60;;;;;;;4.14;100.00;98364.13;4980638;28;20310;-31
2021/01/23 09:23:55;;;;;;;15.93;11.00;;;;;;;4.14;100.00;98366.69;4980344;28;20196;-30
2021/01/23 09:26:42;;;;;;;16.03;9.80;;;;;;;4.18;100.00;98375.16;4986501;28;20214;-31
2021/01/23 09:29:28;;;;;;;11.93;8.90;;;;;;;4.08;100.00;98367.59;4983876;28;20203;-32
2021/01/23 09:32:17;;;;;;;15.80;8.87;;;;;;;4.12;100.00;98366.69;4982479;28;20199;-31
2021/01/23 09:35:05;;;;;;;14.10;9.80;;;;;;;4.24;100.00;98375.91;4985052;28;20300;-31
2021/01/23 09:37:51;;;;;;;17.03;10.77;;;;;;;4.20;100.00;98370.88;4980994;28;20207;-31
2021/01/23 09:40:37;;;;;;;13.17;10.07;;;;;;;4.04;100.00;98371.06;4981780;28;20621;-31
2021/01/23 09:43:26;;;;;;;14.77;9.13;;;;;;;3.97;100.00;98368.63;4982023;28;20239;-31
2021/01/23 09:46:12;;;;;;;13.77;9.53;;;;;;;3.91;100.00;98366.97;4981176;28;20432;-31
2021/01/23 09:49:00;;;;;;;13.40;9.07;;;;;;;4.06;100.00;98364.22;4980884;28;20262;-31
2021/01/23 09:51:47;;;;;;;13.63;9.53;;;;;;;4.16;100.00;98370.06;4981752;28;20195;-31
2021/01/23 09:54:33;;;;;;;14.30;9.43;;;;;;;4.14;100.00;98372.66;4980843;28;20354;-30
2021/01/23 09:57:19;;;;;;;15.10;10.20;;;;;;;4.17;100.00;98365.78;4980826;28;20254;-31
2021/01/23 10:00:07;;;;;;;10.70;8.30;;;;;;;4.20;100.00;98370.88;4982730;28;20251;-31
2021/01/23 10:02:54;;;;;;;15.07;9.27;;;;;;;4.52;100.00;98362.72;4981484;28;20254;-30
2021/01/23 10:05:41;;;;;;;11.43;9.13;;;;;;;4.24;100.00;98362.25;4980534;28;20198;-30
2021/01/23 10:08:28;;;;;;;12.67;8.53;;;;;;;4.30;100.00;98351.94;4983457;28;20247;-30
2021/01/23 10:11:14;;;;;;;11.70;8.23;;;;;;;4.18;100.00;98358.09;4981447;28;20199;-31
2021/01/23 10:14:00;;;;;;;10.97;8.27;;;;;;;4.15;100.00;98361.53;4980807;28;20196;-30
2021/01/23 10:16:50;;;;;;;11.87;8.37;;;;;;;4.33;100.00;98355.31;4980090;28;20199;-30
2021/01/23 10:19:36;;;;;;;9.77;7.97;;;;;;;4.43;100.00;98344.03;4979604;28;20203;-31
2021/01/23 10:22:23;;;;;;;10.57;8.17;;;;;;;4.64;100.00;98347.13;4979922;28;20266;-30
2021/01/23 10:25:12;;;;;;;9.00;7.77;;;;;;;4.61;100.00;98342.06;4980288;28;20199;-31
2021/01/23 10:27:58;;;;;;;9.03;7.13;;;;;;;4.72;100.00;98341.03;4980089;28;20221;-31
2021/01/23 10:30:45;;;;;;;10.73;7.53;;;;;;;4.88;100.00;98340.78;4979892;28;20538;-30
2021/01/23 10:33:31;;;;;;;9.23;7.83;;;;;;;5.39;100.00;98342.41;4980563;28;20279;-31
2021/01/23 10:36:18;;;;;;;10.03;7.77;;;;;;;5.09;100.00;98343.81;4979470;28;20200;-31
2021/01/23 10:39:06;;;;;;;10.17;7.67;;;;;;;4.95;100.00;98338.09;4979618;28;20208;-31
2021/01/23 10:41:53;;;;;;;10.90;8.07;;;;;;;5.07;100.00;98339.56;4980149;28;20359;-31
2021/01/23 10:44:41;;;;;;;8.27;6.80;;;;;;;5.44;100.00;98338.00;4982433;28;20205;-30
2021/01/23 10:47:27;;;;;;;9.10;7.10;;;;;;;5.05;100.00;98343.88;4979458;28;20210;-31
2021/01/23 10:50:18;;;;;;;8.70;7.03;;;;;;;5.60;100.00;98337.69;4980876;28;20203;-32
2021/01/23 10:53:07;;;;;;;8.30;7.47;;;;;;;5.31;100.00;98335.72;4980204;28;20300;-31
2021/01/23 10:55:54;;;;;;;8.63;7.20;;;;;;;6.07;100.00;98336.75;4981333;28;20199;-30
2021/01/23 10:58:41;;;;;;;11.00;6.90;;;;;;;6.48;100.00;98326.38;4984503;28;20200;-31
2021/01/23 11:01:32;;;;;;;8.40;7.17;;;;;;;6.14;100.00;98328.03;4979116;28;20223;-31
2021/01/23 11:04:18;;;;;;;9.57;6.63;;;;;;;6.28;100.00;98328.56;4978740;28;20367;-31
2021/01/23 11:07:05;;;;;;;6.57;5.97;;;;;;;6.84;100.00;98323.78;4982307;28;20266;-30
2021/01/23 11:09:51;;;;;;;5.90;5.30;;;;;;;6.77;100.00;98317.13;4982539;28;20215;-30
2021/01/23 11:12:42;;;;;;;8.87;6.80;;;;;;;6.03;100.00;98335.97;4980517;28;20191;-31
2021/01/23 11:15:35;;;;;;;8.73;6.37;;;;;;;6.28;100.00;98328.56;4979884;28;20203;-31
2021/01/23 11:18:24;;;;;;;7.90;6.67;;;;;;;5.82;100.00;98323.56;4979902;28;20297;-31
2021/01/23 11:21:17;;;;;;;7.00;6.20;;;;;;;5.85;100.00;98324.34;4980648;28;20233;-30
2021/01/23 11:24:07;;;;;;;6.80;6.10;;;;;;;5.99;100.00;98312.97;4979692;28;20374;-31
2021/01/23 11:26:53;;;;;;;6.83;6.13;;;;;;;5.78;100.00;98312.53;4979744;28;20198;-30
2021/01/23 11:29:41;;;;;;;6.67;6.03;;;;;;;5.50;100.00;98309.69;4980923;28;20689;-31
2021/01/23 11:32:29;;;;;;;7.07;5.87;;;;;;;5.61;100.00;98303.47;4983164;28;20669;-31
2021/01/23 11:35:20;;;;;;;9.87;7.10;;;;;;;5.76;100.00;98301.47;4982088;28;20480;-31
2021/01/23 11:38:07;;;;;;;6.23;5.63;;;;;;;5.65;100.00;98288.00;4981594;28;20612;-31
2021/01/23 11:40:54;;;;;;;11.23;6.43;;;;;;;5.56;100.00;98285.66;4981983;28;20261;-30
2021/01/23 11:43:40;;;;;;;11.90;6.50;;;;;;;5.65;100.00;98282.03;4980153;28;20206;-33
2021/01/23 11:46:27;;;;;;;7.93;6.00;;;;;;;5.38;100.00;98280.91;4980860;28;20218;-30
2021/01/23 11:49:14;;;;;;;7.87;6.73;;;;;;;5.69;100.00;98276.81;4979732;28;20519;-31
2021/01/23 11:52:03;;;;;;;11.23;6.77;;;;;;;5.70;100.00;98277.66;4980058;28;20201;-31
2021/01/23 11:54:52;;;;;;;7.67;6.87;;;;;;;5.66;100.00;98276.03;4982529;28;20273;-30
2021/01/23 11:57:40;;;;;;;9.87;7.27;;;;;;;5.69;100.00;98273.41;4978968;28;20710;-31
2021/01/23 12:00:27;;;;;;;9.60;6.67;;;;;;;5.88;100.00;98269.56;4980796;28;20214;-31
2021/01/23 12:03:17;;;;;;;7.67;5.83;;;;;;;5.72;100.00;98266.50;4981756;28;20232;-31
2021/01/23 12:06:04;;;;;;;7.80;6.53;;;;;;;5.73;100.00;98268.19;4980738;28;20570;-31
2021/01/23 12:08:54;;;;;;;9.00;6.47;;;;;;;5.86;100.00;98266.19;4979466;28;20356;-31
2021/01/23 12:11:40;;;;;;;6.90;6.20;;;;;;;5.80;100.00;98256.88;4979281;28;20253;-31
2021/01/23 12:14:26;;;;;;;8.20;6.50;;;;;;;5.90;100.00;98251.59;4978966;28;20205;-30
2021/01/23 12:17:13;;;;;;;8.93;6.73;;;;;;;5.95;100.00;98249.78;4978615;28;20291;-29
2021/01/23 12:20:00;;;;;;;9.23;6.80;;;;;;;5.98;100.00;98252.28;4978463;28;20255;-29
2021/01/23 12:22:49;;;;;;;8.83;6.33;;;;;;;6.44;100.00;98242.56;4978680;28;20235;-30
2021/01/23 12:25:35;;;;;;;7.67;6.90;;;;;;;6.41;100.00;98240.06;4981843;28;20267;-30
2021/01/23 12:28:21;;;;;;;8.83;6.60;;;;;;;6.54;100.00;98244.03;4979032;28;20274;-31
2021/01/23 12:31:08;;;;;;;7.80;6.80;;;;;;;7.03;100.00;98237.59;4979587;28;20200;-30
2021/01/23 12:33:54;;;;;;;8.80;6.83;;;;;;;7.77;100.00;98226.88;4980322;28;20529;-30
2021/01/23 12:36:41;;;;;;;7.47;6.60;;;;;;;8.24;100.00;98219.38;4980687;28;20290;-31
2021/01/23 12:39:28;;;;;;;6.83;5.83;;;;;;;8.73;100.00;98220.34;4980937;28;20199;-31
2021/01/23 12:42:14;;;;;;;6.87;6.07;;;;;;;7.87;100.00;98214.56;4982374;28;20295;-31
2021/01/23 12:45:00;;;;;;;8.87;6.37;;;;;;;7.11;100.00;98204.81;4983206;28;20351;-31
2021/01/23 12:47:46;;;;;;;8.10;6.47;;;;;;;7.78;100.00;98202.81;4981860;28;20268;-31
2021/01/23 12:50:38;;;;;;;7.33;5.90;;;;;;;8.20;100.00;98190.28;4981532;28;20603;-31
2021/01/23 12:53:25;;;;;;;6.30;5.70;;;;;;;8.01;100.00;98189.19;4981822;28;20247;-31
2021/01/23 12:56:12;;;;;;;6.57;5.80;;;;;;;8.67;100.00;98194.78;4981957;28;20207;-31
2021/01/23 12:59:01;;;;;;;7.20;5.50;;;;;;;7.94;100.00;98191.16;4981656;28;20590;-31
2021/01/23 13:01:49;;;;;;;7.70;5.50;;;;;;;7.85;100.00;98186.28;4980807;28;20231;-31
2021/01/23 13:04:35;;;;;;;6.63;5.93;;;;;;;7.78;100.00;98186.53;4982404;28;20251;-31
2021/01/23 13:07:24;;;;;;;6.10;5.50;;;;;;;7.47;100.00;98184.88;4981142;28;20388;-30